createdAt,value
2018-09-21T00:01:17.578Z,95364.00
2018-09-21T00:03:52.036Z,95359.00
2018-09-21T00:06:21.660Z,95360.00
2018-09-21T00:08:51.134Z,95358.00
2018-09-21T00:11:20.647Z,95353.00
2018-09-21T00:13:50.458Z,95356.00
2018-09-21T00:16:20.782Z,95343.00
2018-09-21T00:18:50.230Z,95339.00
2018-09-21T00:21:19.438Z,95343.00
2018-09-21T00:23:49.322Z,95335.00
2018-09-21T00:26:19.463Z,95342.00
2018-09-21T00:28:49.298Z,95331.00
2018-09-21T00:31:19.410Z,95336.00
2018-09-21T00:33:49.534Z,95324.00
2018-09-21T00:36:19.467Z,95335.00
2018-09-21T00:38:49.502Z,95328.00
2018-09-21T00:41:19.634Z,95327.00
2018-09-21T00:43:49.782Z,95321.00
2018-09-21T00:46:19.599Z,95321.00
2018-09-21T00:48:49.639Z,95313.00
2018-09-21T00:51:19.681Z,95308.00
2018-09-21T00:53:49.742Z,95305.00
2018-09-21T00:56:19.769Z,95306.00
2018-09-21T00:58:49.851Z,95309.00
2018-09-21T01:01:19.727Z,95319.00
2018-09-21T01:03:49.862Z,95309.00
2018-09-21T01:06:19.851Z,95316.00
2018-09-21T01:08:49.915Z,95314.00
2018-09-21T01:11:19.935Z,95306.00
2018-09-21T01:13:49.954Z,95303.00
2018-09-21T01:16:20.050Z,95296.00
2018-09-21T01:18:50.079Z,95303.00
2018-09-21T01:21:19.919Z,95295.00
2018-09-21T01:23:50.103Z,95303.00
2018-09-21T01:26:20.165Z,95292.00
2018-09-21T01:28:50.116Z,95286.00
2018-09-21T01:31:20.175Z,95291.00
2018-09-21T01:33:50.224Z,95287.00
2018-09-21T01:36:20.196Z,95285.00
2018-09-21T01:38:50.307Z,95285.00
2018-09-21T01:41:20.215Z,95279.00
2018-09-21T01:43:50.247Z,95281.00
2018-09-21T01:46:20.326Z,95291.00
2018-09-21T01:48:50.337Z,95285.00
2018-09-21T01:51:20.486Z,95280.00
2018-09-21T01:53:50.426Z,95282.00
2018-09-21T01:56:20.386Z,95276.00
2018-09-21T01:58:50.347Z,95273.00
2018-09-21T02:01:20.455Z,95279.00
2018-09-21T02:03:50.558Z,95271.00
2018-09-21T02:06:20.584Z,95268.00
2018-09-21T02:08:50.588Z,95268.00
2018-09-21T02:11:20.614Z,95270.00
2018-09-21T02:13:50.602Z,95269.00
2018-09-21T02:16:20.647Z,95273.00
2018-09-21T02:18:50.499Z,95272.00
2018-09-21T02:21:20.574Z,95271.00
2018-09-21T02:23:50.746Z,95274.00
2018-09-21T02:26:20.774Z,95271.00
2018-09-21T02:28:50.742Z,95263.00
2018-09-21T02:31:20.728Z,95272.00
2018-09-21T02:33:50.683Z,95268.00
2018-09-21T02:36:20.794Z,95263.00
2018-09-21T02:38:50.867Z,95267.00
2018-09-21T02:41:20.920Z,95259.00
2018-09-21T02:43:50.899Z,95268.00
2018-09-21T02:46:20.867Z,95268.00
2018-09-21T02:48:50.996Z,95258.00
2018-09-21T02:51:20.991Z,95261.00
2018-09-21T02:53:50.950Z,95267.00
2018-09-21T02:56:21.496Z,95262.00
2018-09-21T02:58:51.319Z,95268.00
2018-09-21T03:01:21.145Z,95246.00
2018-09-21T03:03:51.382Z,95262.00
2018-09-21T03:06:21.192Z,95262.00
2018-09-21T03:08:51.071Z,95265.00
2018-09-21T03:11:21.045Z,95268.00
2018-09-21T03:13:51.223Z,95266.00
2018-09-21T03:16:21.139Z,95276.00
2018-09-21T03:18:51.170Z,95265.00
2018-09-21T03:21:21.196Z,95270.00
2018-09-21T03:23:51.229Z,95260.00
2018-09-21T03:26:21.190Z,95265.00
2018-09-21T03:28:51.246Z,95257.00
2018-09-21T03:31:21.301Z,95259.00
2018-09-21T03:33:51.358Z,95248.00
2018-09-21T03:36:21.506Z,95263.00
2018-09-21T03:38:51.434Z,95256.00
2018-09-21T03:41:21.464Z,95255.00
2018-09-21T03:43:51.398Z,95256.00
2018-09-21T03:46:21.587Z,95252.00
2018-09-21T03:48:51.703Z,95254.00
2018-09-21T03:51:21.703Z,95264.00
2018-09-21T03:53:51.720Z,95253.00
2018-09-21T03:56:21.676Z,95251.00
2018-09-21T03:58:51.578Z,95247.00
2018-09-21T04:01:21.534Z,95252.00
2018-09-21T04:03:51.675Z,95244.00
2018-09-21T04:06:21.748Z,95239.00
2018-09-21T04:08:51.835Z,95237.00
2018-09-21T04:11:21.811Z,95231.00
2018-09-21T04:13:51.898Z,95233.00
2018-09-21T04:16:21.955Z,95224.00
2018-09-21T04:18:51.871Z,95229.00
2018-09-21T04:21:21.822Z,95231.00
2018-09-21T04:23:52.118Z,95235.00
2018-09-21T04:26:21.932Z,95230.00
2018-09-21T04:28:52.153Z,95231.00
2018-09-21T04:31:22.088Z,95227.00
2018-09-21T04:33:52.072Z,95227.00
2018-09-21T04:36:22.097Z,95227.00
2018-09-21T04:38:52.169Z,95216.00
2018-09-21T04:41:22.170Z,95214.00
2018-09-21T04:43:52.270Z,95206.00
2018-09-21T04:46:22.349Z,95217.00
2018-09-21T04:48:52.207Z,95206.00
2018-09-21T04:51:22.295Z,95208.00
2018-09-21T04:53:52.328Z,95197.00
2018-09-21T04:56:22.354Z,95204.00
2018-09-21T04:58:52.438Z,95208.00
2018-09-21T05:01:22.347Z,95205.00
2018-09-21T05:03:52.538Z,95213.00
2018-09-21T05:06:22.600Z,95210.00
2018-09-21T05:08:52.466Z,95210.00
2018-09-21T05:11:22.538Z,95214.00
2018-09-21T05:13:52.611Z,95214.00
2018-09-21T05:16:22.595Z,95211.00
2018-09-21T05:18:52.494Z,95218.00
2018-09-21T05:21:22.616Z,95216.00
2018-09-21T05:23:52.554Z,95232.00
2018-09-21T05:26:22.627Z,95228.00
2018-09-21T05:28:52.665Z,95225.00
2018-09-21T05:31:22.596Z,95223.00
2018-09-21T05:33:52.726Z,95228.00
2018-09-21T05:36:22.625Z,95222.00
2018-09-21T05:38:52.786Z,95225.00
2018-09-21T05:41:22.766Z,95231.00
2018-09-21T05:43:52.650Z,95234.00
2018-09-21T05:46:22.784Z,95232.00
2018-09-21T05:48:52.772Z,95227.00
2018-09-21T05:51:23.185Z,95230.00
2018-09-21T05:53:53.322Z,95234.00
2018-09-21T05:56:23.425Z,95233.00
2018-09-21T05:58:53.201Z,95235.00
2018-09-21T06:01:23.344Z,95228.00
2018-09-21T06:03:53.400Z,95226.00
2018-09-21T06:06:23.586Z,95232.00
2018-09-21T06:08:53.390Z,95221.00
2018-09-21T06:11:23.511Z,95225.00
2018-09-21T06:13:55.088Z,95224.00
2018-09-21T06:16:24.249Z,95230.00
2018-09-21T06:18:53.455Z,95216.00
2018-09-21T06:21:23.451Z,95219.00
2018-09-21T06:23:53.523Z,95216.00
2018-09-21T06:26:23.521Z,95212.00
2018-09-21T06:28:53.679Z,95217.00
2018-09-21T06:31:23.592Z,95216.00
2018-09-21T06:33:53.634Z,95221.00
2018-09-21T06:36:23.773Z,95220.00
2018-09-21T06:38:53.633Z,95220.00
2018-09-21T06:41:23.478Z,95220.00
2018-09-21T06:43:53.638Z,95219.00
2018-09-21T06:46:23.694Z,95218.00
2018-09-21T06:48:53.641Z,95220.00
2018-09-21T06:51:23.683Z,95212.00
2018-09-21T06:53:53.792Z,95215.00
2018-09-21T06:56:23.827Z,95213.00
2018-09-21T06:58:53.784Z,95212.00
2018-09-21T07:01:23.834Z,95196.00
2018-09-21T07:03:53.899Z,95208.00
2018-09-21T07:06:23.929Z,95210.00
2018-09-21T07:08:53.891Z,95207.00
2018-09-21T07:11:23.938Z,95198.00
2018-09-21T07:13:54.253Z,95202.00
2018-09-21T07:16:24.087Z,95204.00
2018-09-21T07:18:54.033Z,95215.00
2018-09-21T07:21:24.050Z,95211.00
2018-09-21T07:23:54.130Z,95215.00
2018-09-21T07:26:24.158Z,95210.00
2018-09-21T07:28:54.057Z,95214.00
2018-09-21T07:31:24.049Z,95208.00
2018-09-21T07:33:54.263Z,95203.00
2018-09-21T07:36:24.355Z,95209.00
2018-09-21T07:38:54.217Z,95215.00
2018-09-21T07:41:24.175Z,95215.00
2018-09-21T07:43:54.412Z,95215.00
2018-09-21T07:46:24.255Z,95216.00
2018-09-21T07:48:54.333Z,95213.00
2018-09-21T07:51:24.230Z,95220.00
2018-09-21T07:53:54.283Z,95213.00
2018-09-21T07:56:24.429Z,95212.00
2018-09-21T07:58:54.487Z,95213.00
2018-09-21T08:01:24.503Z,95212.00
2018-09-21T08:03:54.495Z,95217.00
2018-09-21T08:06:24.331Z,95216.00
2018-09-21T08:08:54.450Z,95213.00
2018-09-21T08:11:24.480Z,95230.00
2018-09-21T08:13:55.243Z,95226.00
2018-09-21T08:16:24.582Z,95219.00
2018-09-21T08:18:54.570Z,95220.00
2018-09-21T08:21:24.618Z,95221.00
2018-09-21T08:23:54.627Z,95223.00
2018-09-21T08:26:24.616Z,95218.00
2018-09-21T08:28:54.652Z,95224.00
2018-09-21T08:31:24.712Z,95225.00
2018-09-21T08:33:54.726Z,95223.00
2018-09-21T08:36:24.868Z,95213.00
2018-09-21T08:38:54.933Z,95217.00
2018-09-21T08:41:24.790Z,95224.00
2018-09-21T08:43:55.216Z,95209.00
2018-09-21T08:46:24.855Z,95203.00
2018-09-21T08:48:54.745Z,95201.00
2018-09-21T08:51:24.674Z,95209.00
2018-09-21T08:53:54.901Z,95196.00
2018-09-21T08:56:24.962Z,95207.00
2018-09-21T08:58:54.982Z,95187.00
2018-09-21T09:01:24.927Z,95192.00
2018-09-21T09:03:54.930Z,95203.00
2018-09-21T09:06:25.110Z,95196.00
2018-09-21T09:08:55.145Z,95205.00
2018-09-21T09:11:24.967Z,95196.00
2018-09-21T09:13:55.180Z,95195.00
2018-09-21T09:16:24.955Z,95190.00
2018-09-21T09:18:55.076Z,95187.00
2018-09-21T09:21:25.155Z,95194.00
2018-09-21T09:23:55.223Z,95186.00
2018-09-21T09:26:25.249Z,95186.00
2018-09-21T09:28:55.268Z,95179.00
2018-09-21T09:31:25.389Z,95180.00
2018-09-21T09:33:55.296Z,95189.00
2018-09-21T09:36:25.271Z,95181.00
2018-09-21T09:38:55.296Z,95175.00
2018-09-21T09:41:25.421Z,95174.00
2018-09-21T09:43:55.615Z,95169.00
2018-09-21T09:46:25.275Z,95173.00
2018-09-21T09:48:55.519Z,95170.00
2018-09-21T09:51:25.394Z,95170.00
2018-09-21T09:53:55.393Z,95168.00
2018-09-21T09:56:25.458Z,95163.00
2018-09-21T09:58:55.590Z,95160.00
2018-09-21T10:01:25.449Z,95166.00
2018-09-21T10:03:55.486Z,95159.00
2018-09-21T10:06:25.565Z,95165.00
2018-09-21T10:08:55.607Z,95156.00
2018-09-21T10:11:25.594Z,95158.00
2018-09-21T10:13:55.627Z,95165.00
2018-09-21T10:16:25.662Z,95155.00
2018-09-21T10:18:55.658Z,95157.00
2018-09-21T10:21:25.641Z,95155.00
2018-09-21T10:23:55.770Z,95147.00
2018-09-21T10:26:25.732Z,95141.00
2018-09-21T10:28:55.956Z,95145.00
2018-09-21T10:31:25.823Z,95147.00
2018-09-21T10:33:55.855Z,95134.00
2018-09-21T10:36:25.807Z,95130.00
2018-09-21T10:38:55.889Z,95135.00
2018-09-21T10:41:25.803Z,95134.00
2018-09-21T10:43:55.844Z,95129.00
2018-09-21T10:46:25.834Z,95122.00
2018-09-21T10:48:55.938Z,95109.00
2018-09-21T10:51:25.921Z,95117.00
2018-09-21T10:53:56.071Z,95118.00
2018-09-21T10:56:27.031Z,95120.00
2018-09-21T10:58:56.240Z,95120.00
2018-09-21T11:01:26.003Z,95125.00
2018-09-21T11:03:56.055Z,95117.00
2018-09-21T11:06:27.134Z,95122.00
2018-09-21T11:08:56.404Z,95125.00
2018-09-21T11:11:27.433Z,95120.00
2018-09-21T11:13:56.602Z,95128.00
2018-09-21T11:16:27.342Z,95115.00
2018-09-21T11:18:56.466Z,95109.00
2018-09-21T11:21:27.364Z,95105.00
2018-09-21T11:23:56.534Z,95100.00
2018-09-21T11:26:26.444Z,95097.00
2018-09-21T11:28:56.386Z,95098.00
2018-09-21T11:31:27.539Z,95091.00
2018-09-21T11:33:56.725Z,95099.00
2018-09-21T11:36:26.346Z,95094.00
2018-09-21T11:38:56.505Z,95093.00
2018-09-21T11:41:26.659Z,95096.00
2018-09-21T11:43:56.460Z,95080.00
2018-09-21T11:46:26.568Z,95084.00
2018-09-21T11:48:56.368Z,95074.00
2018-09-21T11:51:26.629Z,95071.00
2018-09-21T11:53:56.534Z,95073.00
2018-09-21T11:56:26.558Z,95068.00
2018-09-21T11:58:56.587Z,95064.00
2018-09-21T12:01:26.706Z,95061.00
2018-09-21T12:03:56.674Z,95050.00
2018-09-21T12:06:26.655Z,95055.00
2018-09-21T12:08:56.625Z,95057.00
2018-09-21T12:11:26.695Z,95056.00
2018-09-21T12:13:56.727Z,95041.00
2018-09-21T12:16:26.680Z,95048.00
2018-09-21T12:18:56.710Z,95050.00
2018-09-21T12:21:26.798Z,95042.00
2018-09-21T12:23:56.745Z,95037.00
2018-09-21T12:26:26.838Z,95038.00
2018-09-21T12:28:56.843Z,95053.00
2018-09-21T12:31:26.799Z,95051.00
2018-09-21T12:33:56.840Z,95022.00
2018-09-21T12:36:26.980Z,95042.00
2018-09-21T12:38:56.892Z,95034.00
2018-09-21T12:41:26.932Z,95031.00
2018-09-21T12:43:57.002Z,95039.00
2018-09-21T12:46:28.477Z,95030.00
2018-09-21T12:49:02.598Z,95029.00
2018-09-21T12:51:32.599Z,95029.00
2018-09-21T12:54:01.762Z,95015.00
2018-09-21T12:56:31.022Z,95017.00
2018-09-21T12:59:00.160Z,95033.00
2018-09-21T13:01:29.324Z,95025.00
2018-09-21T13:03:58.451Z,95027.00
2018-09-21T13:06:28.387Z,95027.00
2018-09-21T13:08:57.553Z,95015.00
2018-09-21T13:11:28.424Z,95010.00
2018-09-21T13:13:57.557Z,95003.00
2018-09-21T13:16:28.337Z,94998.00
2018-09-21T13:18:57.591Z,94995.00
2018-09-21T13:21:28.431Z,94994.00
2018-09-21T13:23:57.586Z,94990.00
2018-09-21T13:26:28.429Z,94992.00
2018-09-21T13:28:57.657Z,94993.00
2018-09-21T13:31:28.518Z,94980.00
2018-09-21T13:33:57.622Z,94985.00
2018-09-21T13:36:28.752Z,94985.00
2018-09-21T13:38:57.975Z,94982.00
2018-09-21T13:41:28.538Z,94979.00
2018-09-21T13:43:57.814Z,94983.00
2018-09-21T13:46:28.381Z,94971.00
2018-09-21T13:48:57.579Z,94981.00
2018-09-21T13:51:28.618Z,94980.00
2018-09-21T13:53:58.039Z,94965.00
2018-09-21T13:56:29.002Z,94968.00
2018-09-21T13:58:58.356Z,94963.00
2018-09-21T14:01:28.663Z,94959.00
2018-09-21T14:03:58.346Z,94959.00
2018-09-21T14:06:28.674Z,94958.00
2018-09-21T14:08:57.872Z,94959.00
2018-09-21T14:11:28.670Z,94956.00
2018-09-21T14:13:57.867Z,94955.00
2018-09-21T14:16:28.789Z,94962.00
2018-09-21T14:18:57.939Z,94952.00
2018-09-21T14:21:27.413Z,94966.00
2018-09-21T14:23:56.627Z,94959.00
2018-09-21T14:26:25.858Z,94971.00
2018-09-21T14:28:55.276Z,94953.00
2018-09-21T14:31:24.582Z,94941.00
2018-09-21T14:33:53.703Z,94950.00
2018-09-21T14:36:22.860Z,94942.00
2018-09-21T14:38:51.999Z,94941.00
2018-09-21T14:41:21.234Z,94932.00
2018-09-21T14:43:50.435Z,94939.00
2018-09-21T14:46:19.656Z,94936.00
2018-09-21T14:48:48.809Z,94931.00
2018-09-21T14:51:18.100Z,94928.00
2018-09-21T14:53:47.322Z,94924.00
2018-09-21T14:56:16.442Z,94918.00
2018-09-21T14:58:45.668Z,94920.00
2018-09-21T15:01:14.885Z,94922.00
2018-09-21T15:03:44.142Z,94913.00
2018-09-21T15:06:13.271Z,94908.00
2018-09-21T15:08:42.531Z,94916.00
2018-09-21T15:11:11.945Z,94911.00
2018-09-21T15:13:41.098Z,94918.00
2018-09-21T15:16:10.289Z,94927.00
2018-09-21T15:18:39.650Z,94938.00
2018-09-21T15:21:08.719Z,94938.00
2018-09-21T15:23:37.979Z,94935.00
2018-09-21T15:26:07.144Z,94934.00
2018-09-21T15:28:36.299Z,94942.00
2018-09-21T15:31:05.422Z,94936.00
2018-09-21T15:33:34.567Z,94941.00
2018-09-21T15:36:03.755Z,94930.00
2018-09-21T15:38:32.860Z,94937.00
2018-09-21T15:41:02.072Z,94930.00
2018-09-21T15:43:31.368Z,94947.00
2018-09-21T15:46:00.540Z,94934.00
2018-09-21T15:48:29.699Z,94936.00
2018-09-21T15:50:58.894Z,94937.00
2018-09-21T15:53:29.020Z,94949.00
2018-09-21T15:55:58.969Z,94941.00
2018-09-21T15:58:28.949Z,94932.00
2018-09-21T16:00:58.983Z,94936.00
2018-09-21T16:03:29.055Z,94935.00
2018-09-21T16:05:59.092Z,94925.00
2018-09-21T16:08:29.072Z,94924.00
2018-09-21T16:10:59.042Z,94925.00
2018-09-21T16:13:29.163Z,94938.00
2018-09-21T16:15:59.254Z,94935.00
2018-09-21T16:18:29.357Z,94938.00
2018-09-21T16:20:59.160Z,94940.00
2018-09-21T16:23:29.197Z,94934.00
2018-09-21T16:25:59.318Z,94936.00
2018-09-21T16:28:29.299Z,94949.00
2018-09-21T16:30:59.272Z,94950.00
2018-09-21T16:33:29.392Z,94950.00
2018-09-21T16:35:59.160Z,94965.00
2018-09-21T16:38:29.406Z,94953.00
2018-09-21T16:40:59.323Z,94965.00
2018-09-21T16:43:29.326Z,94978.00
2018-09-21T16:45:59.486Z,94985.00
2018-09-21T16:48:29.411Z,94987.00
2018-09-21T16:50:59.420Z,94990.00
2018-09-21T16:53:29.470Z,95012.00
2018-09-21T16:55:59.524Z,95021.00
2018-09-21T16:58:29.428Z,95014.00
2018-09-21T17:00:59.523Z,95021.00
2018-09-21T17:03:29.624Z,95011.00
2018-09-21T17:05:59.556Z,95037.00
2018-09-21T17:08:29.679Z,95036.00
2018-09-21T17:10:59.741Z,95031.00
2018-09-21T17:13:29.734Z,95043.00
2018-09-21T17:16:00.158Z,95043.00
2018-09-21T17:18:29.718Z,95051.00
2018-09-21T17:20:59.786Z,95048.00
2018-09-21T17:23:29.728Z,95059.00
2018-09-21T17:25:59.908Z,95070.00
2018-09-21T17:28:29.920Z,95072.00
2018-09-21T17:30:59.933Z,95070.00
2018-09-21T17:33:30.020Z,95097.00
2018-09-21T17:35:59.968Z,95095.00
2018-09-21T17:38:29.982Z,95100.00
2018-09-21T17:41:00.141Z,95083.00
2018-09-21T17:43:30.073Z,95103.00
2018-09-21T17:46:00.089Z,95113.00
2018-09-21T17:48:30.129Z,95102.00
2018-09-21T17:51:00.090Z,95117.00
2018-09-21T17:53:30.084Z,95109.00
2018-09-21T17:56:00.235Z,95126.00
2018-09-21T17:58:30.287Z,95117.00
2018-09-21T18:01:00.392Z,95129.00
2018-09-21T18:03:30.422Z,95133.00
2018-09-21T18:06:00.387Z,95139.00
2018-09-21T18:08:30.316Z,95133.00
2018-09-21T18:11:00.382Z,95146.00
2018-09-21T18:13:30.427Z,95150.00
2018-09-21T18:16:00.499Z,95155.00
2018-09-21T18:18:30.477Z,95147.00
2018-09-21T18:21:00.526Z,95169.00
2018-09-21T18:23:30.638Z,95171.00
2018-09-21T18:26:00.723Z,95178.00
2018-09-21T18:28:30.462Z,95170.00
2018-09-21T18:31:00.609Z,95178.00
2018-09-21T18:33:30.536Z,95182.00
2018-09-21T18:36:00.527Z,95187.00
2018-09-21T18:38:30.658Z,95187.00
2018-09-21T18:41:00.671Z,95195.00
2018-09-21T18:43:30.682Z,95187.00
2018-09-21T18:46:00.647Z,95188.00
2018-09-21T18:48:30.703Z,95191.00
2018-09-21T18:51:00.790Z,95204.00
2018-09-21T18:53:30.713Z,95209.00
2018-09-21T18:56:00.846Z,95198.00
2018-09-21T18:58:30.716Z,95216.00
2018-09-21T19:01:00.853Z,95227.00
2018-09-21T19:03:30.804Z,95245.00
2018-09-21T19:06:00.996Z,95275.00
2018-09-21T19:08:30.783Z,95302.00
2018-09-21T19:11:00.960Z,95324.00
2018-09-21T19:13:31.047Z,95345.00
2018-09-21T19:16:01.075Z,95364.00
2018-09-21T19:18:31.049Z,95375.00
2018-09-21T19:21:01.124Z,95388.00
2018-09-21T19:23:31.122Z,95395.00
2018-09-21T19:26:01.232Z,95411.00
2018-09-21T19:28:31.099Z,95431.00
2018-09-21T19:31:01.183Z,95444.00
2018-09-21T19:33:31.259Z,95474.00
2018-09-21T19:36:01.198Z,95447.00
2018-09-21T19:38:31.241Z,95463.00
2018-09-21T19:41:01.107Z,95489.00
2018-09-21T19:43:31.189Z,95496.00
2018-09-21T19:46:01.253Z,95520.00
2018-09-21T19:48:31.281Z,95517.00
2018-09-21T19:51:01.376Z,95516.00
2018-09-21T19:53:31.292Z,95518.00
2018-09-21T19:56:01.413Z,95515.00
2018-09-21T19:58:31.343Z,95528.00
2018-09-21T20:01:01.418Z,95528.00
2018-09-21T20:03:31.318Z,95542.00
2018-09-21T20:06:01.568Z,95531.00
2018-09-21T20:08:31.546Z,95533.00
2018-09-21T20:11:01.422Z,95531.00
2018-09-21T20:13:31.515Z,95523.00
2018-09-21T20:16:01.454Z,95543.00
2018-09-21T20:18:31.545Z,95535.00
2018-09-21T20:21:01.625Z,95548.00
2018-09-21T20:23:31.643Z,95543.00
2018-09-21T20:26:01.639Z,95549.00
2018-09-21T20:28:31.619Z,95561.00
2018-09-21T20:31:06.875Z,95568.00
2018-09-21T20:33:36.825Z,95580.00
2018-09-21T20:36:06.029Z,95593.00
2018-09-21T20:38:35.310Z,95594.00
2018-09-21T20:41:04.521Z,95610.00
2018-09-21T20:43:33.752Z,95618.00
2018-09-21T20:46:02.918Z,95617.00
2018-09-21T20:48:32.029Z,95641.00
2018-09-21T20:51:01.843Z,95636.00
2018-09-21T20:53:31.810Z,95624.00
2018-09-21T20:56:01.914Z,95631.00
2018-09-21T20:58:31.829Z,95640.00
2018-09-21T21:01:01.878Z,95651.00
2018-09-21T21:03:32.014Z,95656.00
2018-09-21T21:06:01.944Z,95668.00
2018-09-21T21:08:31.753Z,95678.00
2018-09-21T21:11:02.114Z,95690.00
2018-09-21T21:13:31.988Z,95697.00
2018-09-21T21:16:01.994Z,95694.00
2018-09-21T21:18:32.075Z,95696.00
2018-09-21T21:21:02.163Z,95683.00
2018-09-21T21:23:32.032Z,95701.00
2018-09-21T21:26:02.051Z,95696.00
2018-09-21T21:28:32.168Z,95688.00
2018-09-21T21:31:02.146Z,95701.00
2018-09-21T21:33:32.142Z,95714.00
2018-09-21T21:36:02.581Z,95716.00
2018-09-21T21:38:32.520Z,95721.00
2018-09-21T21:41:02.258Z,95714.00
2018-09-21T21:43:32.657Z,95735.00
2018-09-21T21:46:02.411Z,95744.00
2018-09-21T21:48:32.334Z,95758.00
2018-09-21T21:51:02.382Z,95759.00
2018-09-21T21:53:32.410Z,95754.00
2018-09-21T21:56:02.380Z,95767.00
2018-09-21T21:58:32.444Z,95775.00
2018-09-21T22:01:07.727Z,95783.00
2018-09-21T22:03:37.014Z,95798.00
2018-09-21T22:06:06.128Z,95796.00
2018-09-21T22:08:35.262Z,95783.00
2018-09-21T22:11:16.591Z,95789.00
2018-09-21T22:13:51.232Z,95811.00
2018-09-21T22:16:20.382Z,95808.00
2018-09-21T22:18:49.606Z,95802.00
2018-09-21T22:21:18.829Z,95801.00
2018-09-21T22:23:48.017Z,95818.00
2018-09-21T22:26:17.260Z,95834.00
2018-09-21T22:28:46.459Z,95827.00
2018-09-21T22:31:15.681Z,95822.00
2018-09-21T22:33:44.945Z,95810.00
2018-09-21T22:36:14.139Z,95840.00
2018-09-21T22:38:43.465Z,95834.00
2018-09-21T22:41:12.693Z,95846.00
2018-09-21T22:43:44.839Z,95855.00
2018-09-21T22:46:14.166Z,95888.00
2018-09-21T22:48:43.887Z,95895.00
2018-09-21T22:51:13.485Z,95878.00
2018-09-21T22:53:42.638Z,95872.00
2018-09-21T22:56:11.820Z,95870.00
2018-09-21T22:58:41.044Z,95880.00
2018-09-21T23:01:10.905Z,95880.00
2018-09-21T23:03:40.126Z,95874.00
2018-09-21T23:06:09.412Z,95875.00
2018-09-21T23:08:38.799Z,95893.00
2018-09-21T23:11:07.993Z,95896.00
2018-09-21T23:13:37.121Z,95899.00
2018-09-21T23:16:06.191Z,95910.00
2018-09-21T23:18:35.415Z,95912.00
2018-09-21T23:21:04.780Z,95907.00
2018-09-21T23:23:33.935Z,95914.00
2018-09-21T23:26:03.233Z,95930.00
2018-09-21T23:28:32.753Z,95926.00
2018-09-21T23:31:02.902Z,95921.00
2018-09-21T23:33:32.786Z,95916.00
2018-09-21T23:36:02.896Z,95903.00
2018-09-21T23:38:32.940Z,95909.00
2018-09-21T23:41:02.930Z,95916.00
2018-09-21T23:43:32.934Z,95901.00
2018-09-21T23:46:02.961Z,95907.00
2018-09-21T23:48:32.945Z,95912.00
2018-09-21T23:51:02.990Z,95899.00
2018-09-21T23:53:32.948Z,95893.00
2018-09-21T23:56:03.117Z,95900.00
2018-09-21T23:58:33.035Z,95895.00
